sensor_id;sensor_type;location;lat;lon;timestamp;pressure;altitude;pressure_sealevel;temperature;humidity
53908;BME280;40469;47.998;7.794;2022-11-20T00:01:22;98638.69;;;6.25;100.00
53908;BME280;40469;47.998;7.794;2022-11-20T00:03:52;98630.03;;;6.19;100.00
53908;BME280;40469;47.998;7.794;2022-11-20T00:06:22;98635.22;;;6.30;100.00
53908;BME280;40469;47.998;7.794;2022-11-20T00:08:57;98616.22;;;6.28;100.00
53908;BME280;40469;47.998;7.794;2022-11-20T00:11:34;98632.63;;;6.20;100.00
53908;BME280;40469;47.998;7.794;2022-11-20T00:14:02;98639.53;;;6.15;100.00
53908;BME280;40469;47.998;7.794;2022-11-20T00:16:30;98639.53;;;6.17;100.00
53908;BME280;40469;47.998;7.794;2022-11-20T00:18:56;98641.28;;;6.18;100.00
53908;BME280;40469;47.998;7.794;2022-11-20T00:21:24;98646.41;;;6.10;100.00
53908;BME280;40469;47.998;7.794;2022-11-20T00:23:50;98640.34;;;6.05;100.00
53908;BME280;40469;47.998;7.794;2022-11-20T00:26:21;98650.75;;;6.11;100.00
53908;BME280;40469;47.998;7.794;2022-11-20T00:28:55;98649.88;;;6.15;100.00
53908;BME280;40469;47.998;7.794;2022-11-20T00:31:21;98653.34;;;6.14;100.00
53908;BME280;40469;47.998;7.794;2022-11-20T00:33:47;98644.69;;;6.12;100.00
53908;BME280;40469;47.998;7.794;2022-11-20T00:36:17;98647.28;;;6.15;100.00
53908;BME280;40469;47.998;7.794;2022-11-20T00:38:44;98637.78;;;6.10;100.00
53908;BME280;40469;47.998;7.794;2022-11-20T00:41:11;98641.25;;;6.13;100.00
53908;BME280;40469;47.998;7.794;2022-11-20T00:43:38;98641.25;;;6.15;100.00
53908;BME280;40469;47.998;7.794;2022-11-20T00:46:09;98642.97;;;6.10;100.00
53908;BME280;40469;47.998;7.794;2022-11-20T00:48:35;98641.22;;;6.08;100.00
53908;BME280;40469;47.998;7.794;2022-11-20T00:51:01;98641.25;;;6.15;100.00
53908;BME280;40469;47.998;7.794;2022-11-20T00:53:26;98636.94;;;6.15;100.00
53908;BME280;40469;47.998;7.794;2022-11-20T00:55:56;98633.47;;;6.05;100.00
53908;BME280;40469;47.998;7.794;2022-11-20T00:58:22;98639.50;;;6.06;100.00
53908;BME280;40469;47.998;7.794;2022-11-20T01:00:48;98646.41;;;6.04;100.00
53908;BME280;40469;47.998;7.794;2022-11-20T01:03:17;98649.84;;;5.98;100.00
53908;BME280;40469;47.998;7.794;2022-11-20T01:05:43;98647.25;;;6.00;100.00
53908;BME280;40469;47.998;7.794;2022-11-20T01:08:08;98642.06;;;6.01;100.00
53908;BME280;40469;47.998;7.794;2022-11-20T01:10:34;98646.41;;;6.01;100.00
53908;BME280;40469;47.998;7.794;2022-11-20T01:13:02;98641.19;;;5.99;100.00
53908;BME280;40469;47.998;7.794;2022-11-20T01:15:46;98649.84;;;5.97;100.00
53908;BME280;40469;47.998;7.794;2022-11-20T01:18:11;98649.88;;;6.06;100.00
53908;BME280;40469;47.998;7.794;2022-11-20T01:20:37;98646.41;;;6.05;100.00
53908;BME280;40469;47.998;7.794;2022-11-20T01:23:03;98647.19;;;5.94;100.00
53908;BME280;40469;47.998;7.794;2022-11-20T01:25:29;98652.41;;;5.95;100.00
53908;BME280;40469;47.998;7.794;2022-11-20T01:27:54;98643.78;;;5.98;100.00
53908;BME280;40469;47.998;7.794;2022-11-20T01:30:20;98645.56;;;6.13;100.00
53908;BME280;40469;47.998;7.794;2022-11-20T01:32:45;98652.47;;;6.06;100.00
53908;BME280;40469;47.998;7.794;2022-11-20T01:35:10;98651.56;;;6.01;100.00
53908;BME280;40469;47.998;7.794;2022-11-20T01:37:36;98647.28;;;6.06;100.00
53908;BME280;40469;47.998;7.794;2022-11-20T01:40:01;98655.91;;;5.99;100.00
53908;BME280;40469;47.998;7.794;2022-11-20T01:42:26;98644.66;;;6.03;100.00
53908;BME280;40469;47.998;7.794;2022-11-20T01:48:14;98649.84;;;5.97;100.00
53908;BME280;40469;47.998;7.794;2022-11-20T01:50:40;98651.56;;;5.99;100.00
53908;BME280;40469;47.998;7.794;2022-11-20T01:53:13;98647.25;;;6.01;100.00
53908;BME280;40469;47.998;7.794;2022-11-20T01:55:44;98644.66;;;6.00;100.00
53908;BME280;40469;47.998;7.794;2022-11-20T01:58:12;98639.50;;;6.04;100.00
53908;BME280;40469;47.998;7.794;2022-11-20T02:00:38;98639.47;;;6.01;100.00
53908;BME280;40469;47.998;7.794;2022-11-20T02:03:09;98646.41;;;6.10;100.00
53908;BME280;40469;47.998;7.794;2022-11-20T02:05:59;98648.16;;;6.16;100.00
53908;BME280;40469;47.998;7.794;2022-11-20T02:08:27;98661.97;;;6.05;100.00
53908;BME280;40469;47.998;7.794;2022-11-20T02:10:53;98655.94;;;6.11;100.00
53908;BME280;40469;47.998;7.794;2022-11-20T02:13:18;98649.00;;;6.05;100.00
53908;BME280;40469;47.998;7.794;2022-11-20T02:16:03;98644.66;;;6.01;100.00
53908;BME280;40469;47.998;7.794;2022-11-20T02:18:28;98642.94;;;6.00;100.00
53908;BME280;40469;47.998;7.794;2022-11-20T02:21:19;98648.19;;;6.14;100.00
53908;BME280;40469;47.998;7.794;2022-11-20T02:26:21;98643.81;;;6.10;100.00
53908;BME280;40469;47.998;7.794;2022-11-20T02:28:48;98638.66;;;6.21;100.00
53908;BME280;40469;47.998;7.794;2022-11-20T02:31:13;98642.16;;;6.21;100.00
53908;BME280;40469;47.998;7.794;2022-11-20T02:33:39;98640.38;;;6.16;100.00
53908;BME280;40469;47.998;7.794;2022-11-20T02:36:04;98642.13;;;6.20;100.00
53908;BME280;40469;47.998;7.794;2022-11-20T02:38:31;98644.69;;;6.15;100.00
53908;BME280;40469;47.998;7.794;2022-11-20T02:40:56;98641.25;;;6.12;100.00
53908;BME280;40469;47.998;7.794;2022-11-20T02:43:22;98642.13;;;6.17;100.00
53908;BME280;40469;47.998;7.794;2022-11-20T02:45:48;98648.22;;;6.26;100.00
53908;BME280;40469;47.998;7.794;2022-11-20T02:48:13;98650.75;;;6.19;100.00
53908;BME280;40469;47.998;7.794;2022-11-20T02:50:39;98640.41;;;6.14;100.00
53908;BME280;40469;47.998;7.794;2022-11-20T02:53:05;98651.63;;;6.16;100.00
53908;BME280;40469;47.998;7.794;2022-11-20T02:55:30;98654.22;;;6.16;100.00
53908;BME280;40469;47.998;7.794;2022-11-20T02:57:56;98633.50;;;6.18;100.00
53908;BME280;40469;47.998;7.794;2022-11-20T03:00:21;98638.63;;;6.08;100.00
53908;BME280;40469;47.998;7.794;2022-11-20T03:02:46;98636.06;;;6.13;100.00
53908;BME280;40469;47.998;7.794;2022-11-20T03:05:12;98635.16;;;6.05;100.00
53908;BME280;40469;47.998;7.794;2022-11-20T03:07:37;98643.00;;;6.14;100.00
53908;BME280;40469;47.998;7.794;2022-11-20T03:10:03;98639.47;;;6.03;100.00
53908;BME280;40469;47.998;7.794;2022-11-20T03:12:29;98648.13;;;6.06;100.00
53908;BME280;40469;47.998;7.794;2022-11-20T03:14:54;98645.53;;;6.02;100.00
53908;BME280;40469;47.998;7.794;2022-11-20T03:17:19;98644.66;;;6.03;100.00
53908;BME280;40469;47.998;7.794;2022-11-20T03:19:45;98633.38;;;5.90;100.00
53908;BME280;40469;47.998;7.794;2022-11-20T03:22:10;98638.53;;;5.95;100.00
53908;BME280;40469;47.998;7.794;2022-11-20T03:24:35;98638.63;;;6.01;100.00
53908;BME280;40469;47.998;7.794;2022-11-20T03:27:01;98641.22;;;6.10;100.00
53908;BME280;40469;47.998;7.794;2022-11-20T03:29:26;98633.47;;;6.13;100.00
53908;BME280;40469;47.998;7.794;2022-11-20T03:31:51;98637.78;;;6.17;100.00
53908;BME280;40469;47.998;7.794;2022-11-20T03:34:17;98632.59;;;6.06;100.00
53908;BME280;40469;47.998;7.794;2022-11-20T03:36:42;98641.22;;;6.04;100.00
53908;BME280;40469;47.998;7.794;2022-11-20T03:39:08;98631.72;;;6.04;100.00
53908;BME280;40469;47.998;7.794;2022-11-20T03:41:39;98642.94;;;6.03;100.00
53908;BME280;40469;47.998;7.794;2022-11-20T03:44:08;98643.84;;;6.15;100.00
53908;BME280;40469;47.998;7.794;2022-11-20T03:46:34;98644.59;;;5.94;100.00
53908;BME280;40469;47.998;7.794;2022-11-20T03:48:59;98642.94;;;6.05;100.00
53908;BME280;40469;47.998;7.794;2022-11-20T03:51:27;98649.88;;;6.06;100.00
53908;BME280;40469;47.998;7.794;2022-11-20T03:53:58;98652.47;;;6.09;100.00
53908;BME280;40469;47.998;7.794;2022-11-20T03:56:26;98643.81;;;6.08;100.00
53908;BME280;40469;47.998;7.794;2022-11-20T03:58:52;98649.03;;;6.15;100.00
53908;BME280;40469;47.998;7.794;2022-11-20T04:01:20;98641.22;;;6.08;100.00
53908;BME280;40469;47.998;7.794;2022-11-20T04:03:46;98642.09;;;6.07;100.00
53908;BME280;40469;47.998;7.794;2022-11-20T04:06:20;98641.22;;;6.07;100.00
53908;BME280;40469;47.998;7.794;2022-11-20T04:08:46;98645.53;;;6.02;100.00
53908;BME280;40469;47.998;7.794;2022-11-20T04:13:36;98643.81;;;6.02;100.00
53908;BME280;40469;47.998;7.794;2022-11-20T04:16:03;98649.03;;;6.13;100.00
53908;BME280;40469;47.998;7.794;2022-11-20T04:18:28;98642.94;;;6.05;100.00
53908;BME280;40469;47.998;7.794;2022-11-20T04:20:56;98655.94;;;6.13;100.00
53908;BME280;40469;47.998;7.794;2022-11-20T04:23:22;98648.16;;;6.13;100.00
53908;BME280;40469;47.998;7.794;2022-11-20T04:25:47;98648.16;;;6.11;100.00
53908;BME280;40469;47.998;7.794;2022-11-20T04:28:15;98651.63;;;6.13;100.00
53908;BME280;40469;47.998;7.794;2022-11-20T04:30:46;98645.56;;;6.10;100.00
53908;BME280;40469;47.998;7.794;2022-11-20T04:33:12;98646.41;;;6.08;100.00
53908;BME280;40469;47.998;7.794;2022-11-20T04:35:37;98646.41;;;6.12;100.00
53908;BME280;40469;47.998;7.794;2022-11-20T04:38:03;98643.81;;;6.08;100.00
53908;BME280;40469;47.998;7.794;2022-11-20T04:40:29;98646.41;;;6.12;100.00
53908;BME280;40469;47.998;7.794;2022-11-20T04:42:55;98624.81;;;6.10;100.00
53908;BME280;40469;47.998;7.794;2022-11-20T04:45:20;98641.25;;;6.05;100.00
53908;BME280;40469;47.998;7.794;2022-11-20T04:47:46;98647.25;;;6.03;100.00
53908;BME280;40469;47.998;7.794;2022-11-20T04:50:11;98648.97;;;5.99;100.00
53908;BME280;40469;47.998;7.794;2022-11-20T04:52:37;98649.88;;;6.06;100.00
53908;BME280;40469;47.998;7.794;2022-11-20T04:55:02;98646.41;;;6.08;100.00
53908;BME280;40469;47.998;7.794;2022-11-20T04:57:28;98651.56;;;5.98;100.00
53908;BME280;40469;47.998;7.794;2022-11-20T04:59:53;98650.69;;;6.03;100.00
53908;BME280;40469;47.998;7.794;2022-11-20T05:02:19;98653.31;;;6.00;100.00
53908;BME280;40469;47.998;7.794;2022-11-20T05:04:44;98656.69;;;5.92;100.00
53908;BME280;40469;47.998;7.794;2022-11-20T05:07:09;98650.69;;;5.96;100.00
53908;BME280;40469;47.998;7.794;2022-11-20T05:09:34;98643.81;;;6.07;100.00
53908;BME280;40469;47.998;7.794;2022-11-20T05:12:00;98646.41;;;6.05;100.00
53908;BME280;40469;47.998;7.794;2022-11-20T05:14:25;98639.50;;;6.07;100.00
53908;BME280;40469;47.998;7.794;2022-11-20T05:16:50;98648.03;;;5.93;100.00
53908;BME280;40469;47.998;7.794;2022-11-20T05:19:16;98647.25;;;5.97;100.00
53908;BME280;40469;47.998;7.794;2022-11-20T05:21:41;98642.06;;;5.97;100.00
53908;BME280;40469;47.998;7.794;2022-11-20T05:24:07;98653.31;;;6.00;100.00
53908;BME280;40469;47.998;7.794;2022-11-20T05:26:32;98649.00;;;6.02;100.00
53908;BME280;40469;47.998;7.794;2022-11-20T05:28:57;98649.00;;;6.02;100.00
53908;BME280;40469;47.998;7.794;2022-11-20T05:31:24;98649.00;;;6.05;100.00
53908;BME280;40469;47.998;7.794;2022-11-20T05:33:50;98643.84;;;6.05;100.00
53908;BME280;40469;47.998;7.794;2022-11-20T05:36:16;98654.19;;;6.05;100.00
53908;BME280;40469;47.998;7.794;2022-11-20T05:38:41;98659.31;;;5.96;100.00
53908;BME280;40469;47.998;7.794;2022-11-20T05:41:15;98654.13;;;5.93;100.00
53908;BME280;40469;47.998;7.794;2022-11-20T05:43:43;98661.06;;;6.03;100.00
53908;BME280;40469;47.998;7.794;2022-11-20T05:46:10;98656.75;;;6.01;100.00
53908;BME280;40469;47.998;7.794;2022-11-20T05:48:37;98657.59;;;6.00;100.00
53908;BME280;40469;47.998;7.794;2022-11-20T05:51:05;98649.00;;;6.02;100.00
53908;BME280;40469;47.998;7.794;2022-11-20T05:53:35;98643.81;;;6.02;100.00
53908;BME280;40469;47.998;7.794;2022-11-20T05:58:27;98638.63;;;6.01;100.00
53908;BME280;40469;47.998;7.794;2022-11-20T06:00:52;98642.09;;;6.12;100.00
53908;BME280;40469;47.998;7.794;2022-11-20T06:03:18;98637.78;;;6.02;100.00
53908;BME280;40469;47.998;7.794;2022-11-20T06:05:43;98647.28;;;6.07;100.00
53908;BME280;40469;47.998;7.794;2022-11-20T06:08:08;98645.53;;;6.05;100.00
53908;BME280;40469;47.998;7.794;2022-11-20T06:10:34;98648.13;;;6.02;100.00
53908;BME280;40469;47.998;7.794;2022-11-20T06:12:59;98649.88;;;6.06;100.00
53908;BME280;40469;47.998;7.794;2022-11-20T06:15:25;98651.59;;;6.04;100.00
53908;BME280;40469;47.998;7.794;2022-11-20T06:17:54;98652.44;;;5.98;100.00
53908;BME280;40469;47.998;7.794;2022-11-20T06:20:20;98646.41;;;6.07;100.00
53908;BME280;40469;47.998;7.794;2022-11-20T06:22:46;98648.13;;;5.99;100.00
53908;BME280;40469;47.998;7.794;2022-11-20T06:25:11;98655.88;;;5.96;100.00
53908;BME280;40469;47.998;7.794;2022-11-20T06:27:37;98654.09;;;5.95;100.00
53908;BME280;40469;47.998;7.794;2022-11-20T06:30:03;98660.97;;;5.82;100.00
53908;BME280;40469;47.998;7.794;2022-11-20T06:32:29;98660.13;;;5.87;100.00
53908;BME280;40469;47.998;7.794;2022-11-20T06:34:54;98651.44;;;5.76;100.00
53908;BME280;40469;47.998;7.794;2022-11-20T06:37:19;98654.03;;;5.78;100.00
53908;BME280;40469;47.998;7.794;2022-11-20T06:39:45;98657.50;;;5.80;100.00
53908;BME280;40469;47.998;7.794;2022-11-20T06:42:10;98652.34;;;5.84;100.00
53908;BME280;40469;47.998;7.794;2022-11-20T06:44:35;98654.91;;;5.80;100.00
53908;BME280;40469;47.998;7.794;2022-11-20T06:47:01;98655.75;;;5.79;100.00
53908;BME280;40469;47.998;7.794;2022-11-20T06:49:26;98649.75;;;5.87;100.00
53908;BME280;40469;47.998;7.794;2022-11-20T06:51:51;98656.66;;;5.82;100.00
53908;BME280;40469;47.998;7.794;2022-11-20T06:54:16;98667.91;;;5.91;100.00
53908;BME280;40469;47.998;7.794;2022-11-20T06:56:42;98664.50;;;5.98;100.00
53908;BME280;40469;47.998;7.794;2022-11-20T06:59:07;98666.16;;;5.91;100.00
53908;BME280;40469;47.998;7.794;2022-11-20T07:01:33;98649.75;;;5.87;100.00
53908;BME280;40469;47.998;7.794;2022-11-20T07:03:58;98664.47;;;5.90;100.00
53908;BME280;40469;47.998;7.794;2022-11-20T07:06:24;98668.84;;;6.00;100.00
53908;BME280;40469;47.998;7.794;2022-11-20T07:08:50;98665.31;;;5.91;100.00
53908;BME280;40469;47.998;7.794;2022-11-20T07:11:17;98667.94;;;5.94;100.00
53908;BME280;40469;47.998;7.794;2022-11-20T07:13:42;98673.16;;;6.00;100.00
53908;BME280;40469;47.998;7.794;2022-11-20T07:16:08;98677.50;;;6.07;100.00
53908;BME280;40469;47.998;7.794;2022-11-20T07:18:34;98681.81;;;6.00;100.00
53908;BME280;40469;47.998;7.794;2022-11-20T07:21:01;98681.81;;;6.06;100.00
53908;BME280;40469;47.998;7.794;2022-11-20T07:23:27;98676.63;;;6.05;100.00
53908;BME280;40469;47.998;7.794;2022-11-20T07:25:52;98673.22;;;6.09;100.00
53908;BME280;40469;47.998;7.794;2022-11-20T07:28:17;98666.28;;;6.10;100.00
53908;BME280;40469;47.998;7.794;2022-11-20T07:30:43;98683.56;;;6.12;100.00
53908;BME280;40469;47.998;7.794;2022-11-20T07:33:13;98679.25;;;6.10;100.00
53908;BME280;40469;47.998;7.794;2022-11-20T07:35:39;98682.69;;;6.01;100.00
53908;BME280;40469;47.998;7.794;2022-11-20T07:38:04;98689.59;;;6.06;100.00
53908;BME280;40469;47.998;7.794;2022-11-20T07:40:29;98693.91;;;6.03;100.00
53908;BME280;40469;47.998;7.794;2022-11-20T07:42:55;98693.03;;;6.01;100.00
53908;BME280;40469;47.998;7.794;2022-11-20T07:45:22;98699.03;;;5.94;100.00
53908;BME280;40469;47.998;7.794;2022-11-20T07:47:48;98703.28;;;5.85;100.00
53908;BME280;40469;47.998;7.794;2022-11-20T07:50:14;98707.63;;;5.86;100.00
53908;BME280;40469;47.998;7.794;2022-11-20T07:52:40;98705.88;;;5.79;100.00
53908;BME280;40469;47.998;7.794;2022-11-20T07:55:06;98699.00;;;5.89;100.00
53908;BME280;40469;47.998;7.794;2022-11-20T07:57:31;98702.38;;;5.79;100.00
53908;BME280;40469;47.998;7.794;2022-11-20T07:59:57;98703.28;;;5.81;100.00
53908;BME280;40469;47.998;7.794;2022-11-20T08:02:22;98713.66;;;5.82;100.00
53908;BME280;40469;47.998;7.794;2022-11-20T08:04:47;98703.28;;;5.78;100.00
53908;BME280;40469;47.998;7.794;2022-11-20T08:07:12;98715.34;;;5.76;100.00
53908;BME280;40469;47.998;7.794;2022-11-20T08:09:38;98711.91;;;5.80;100.00
53908;BME280;40469;47.998;7.794;2022-11-20T08:12:03;98720.59;;;5.86;100.00
53908;BME280;40469;47.998;7.794;2022-11-20T08:14:47;98718.03;;;5.89;100.00
53908;BME280;40469;47.998;7.794;2022-11-20T08:17:12;98721.47;;;5.92;100.00
53908;BME280;40469;47.998;7.794;2022-11-20T08:19:43;98725.00;;;5.98;100.00
53908;BME280;40469;47.998;7.794;2022-11-20T08:22:09;98718.00;;;5.93;100.00
53908;BME280;40469;47.998;7.794;2022-11-20T08:24:34;98722.41;;;6.03;100.00
53908;BME280;40469;47.998;7.794;2022-11-20T08:27:00;98726.72;;;5.98;100.00
53908;BME280;40469;47.998;7.794;2022-11-20T08:29:28;98732.81;;;6.07;100.00
53908;BME280;40469;47.998;7.794;2022-11-20T08:31:53;98729.34;;;6.08;100.00
53908;BME280;40469;47.998;7.794;2022-11-20T08:34:18;98737.06;;;5.96;100.00
53908;BME280;40469;47.998;7.794;2022-11-20T08:36:44;98739.75;;;6.13;100.00
53908;BME280;40469;47.998;7.794;2022-11-20T08:39:13;98744.06;;;6.13;100.00
53908;BME280;40469;47.998;7.794;2022-11-20T08:41:38;98731.97;;;6.13;100.00
53908;BME280;40469;47.998;7.794;2022-11-20T08:44:05;98746.69;;;6.23;100.00
53908;BME280;40469;47.998;7.794;2022-11-20T08:46:40;98758.78;;;6.24;100.00
53908;BME280;40469;47.998;7.794;2022-11-20T08:49:08;98759.69;;;6.33;100.00
53908;BME280;40469;47.998;7.794;2022-11-20T08:51:34;98746.75;;;6.36;100.00
53908;BME280;40469;47.998;7.794;2022-11-20T08:54:00;98761.41;;;6.35;100.00
53908;BME280;40469;47.998;7.794;2022-11-20T08:56:33;98768.34;;;6.36;100.00
53908;BME280;40469;47.998;7.794;2022-11-20T08:58:58;98763.16;;;6.35;100.00
53908;BME280;40469;47.998;7.794;2022-11-20T09:01:27;98763.16;;;6.33;100.00
53908;BME280;40469;47.998;7.794;2022-11-20T09:03:55;98764.91;;;6.34;100.00
53908;BME280;40469;47.998;7.794;2022-11-20T09:06:20;98761.41;;;6.28;100.00
53908;BME280;40469;47.998;7.794;2022-11-20T09:08:46;98762.28;;;6.25;100.00
53908;BME280;40469;47.998;7.794;2022-11-20T09:11:11;98767.44;;;6.28;100.00
53908;BME280;40469;47.998;7.794;2022-11-20T09:13:37;98776.13;;;6.30;100.00
53908;BME280;40469;47.998;7.794;2022-11-20T09:16:07;98768.34;;;6.36;100.00
53908;BME280;40469;47.998;7.794;2022-11-20T09:18:34;98772.69;;;6.37;100.00
53908;BME280;40469;47.998;7.794;2022-11-20T09:21:04;98774.41;;;6.34;100.00
53908;BME280;40469;47.998;7.794;2022-11-20T09:23:35;98782.19;;;6.34;100.00
53908;BME280;40469;47.998;7.794;2022-11-20T09:26:09;98781.31;;;6.38;100.00
53908;BME280;40469;47.998;7.794;2022-11-20T09:28:34;98783.94;;;6.44;100.00
53908;BME280;40469;47.998;7.794;2022-11-20T09:31:00;98783.91;;;6.36;100.00
53908;BME280;40469;47.998;7.794;2022-11-20T09:33:26;98780.47;;;6.43;100.00
53908;BME280;40469;47.998;7.794;2022-11-20T09:35:51;98782.25;;;6.52;100.00
53908;BME280;40469;47.998;7.794;2022-11-20T09:38:19;98783.13;;;6.50;100.00
53908;BME280;40469;47.998;7.794;2022-11-20T09:40:51;98779.63;;;6.51;100.00
53908;BME280;40469;47.998;7.794;2022-11-20T09:46:19;98785.75;;;6.68;100.00
53908;BME280;40469;47.998;7.794;2022-11-20T09:51:28;98775.41;;;6.82;100.00
53908;BME280;40469;47.998;7.794;2022-11-20T09:54:18;98776.22;;;6.62;100.00
53908;BME280;40469;47.998;7.794;2022-11-20T09:56:47;98777.09;;;6.72;100.00
53908;BME280;40469;47.998;7.794;2022-11-20T09:59:43;98784.06;;;6.84;100.00
53908;BME280;40469;47.998;7.794;2022-11-20T10:02:37;98778.84;;;6.75;100.00
53908;BME280;40469;47.998;7.794;2022-11-20T10:10:46;98791.00;;;6.94;100.00
53908;BME280;40469;47.998;7.794;2022-11-20T10:13:44;98780.59;;;6.90;100.00
53908;BME280;40469;47.998;7.794;2022-11-20T10:16:17;98781.47;;;6.87;100.00
53908;BME280;40469;47.998;7.794;2022-11-20T10:22:13;98779.72;;;6.71;100.00
53908;BME280;40469;47.998;7.794;2022-11-20T10:27:41;98779.78;;;6.94;100.00
53908;BME280;40469;47.998;7.794;2022-11-20T10:30:15;98778.91;;;6.90;100.00
53908;BME280;40469;47.998;7.794;2022-11-20T10:32:43;98773.69;;;6.86;100.00
53908;BME280;40469;47.998;7.794;2022-11-20T10:35:20;98771.09;;;6.93;100.00
53908;BME280;40469;47.998;7.794;2022-11-20T10:37:52;98767.66;;;6.97;100.00
53908;BME280;40469;47.998;7.794;2022-11-20T10:40:29;98766.78;;;7.11;100.00
53908;BME280;40469;47.998;7.794;2022-11-20T10:43:18;98763.34;;;7.16;100.00
53908;BME280;40469;47.998;7.794;2022-11-20T10:48:21;98753.84;;;7.29;100.00
53908;BME280;40469;47.998;7.794;2022-11-20T10:50:55;98746.91;;;7.22;100.00
53908;BME280;40469;47.998;7.794;2022-11-20T10:55:57;98741.72;;;7.28;100.00
53908;BME280;40469;47.998;7.794;2022-11-20T10:59:02;98737.38;;;7.30;100.00
53908;BME280;40469;47.998;7.794;2022-11-20T11:01:28;98732.19;;;7.29;100.00
53908;BME280;40469;47.998;7.794;2022-11-20T11:03:55;98730.47;;;7.17;100.00
53908;BME280;40469;47.998;7.794;2022-11-20T11:06:39;98732.19;;;7.21;100.00
53908;BME280;40469;47.998;7.794;2022-11-20T11:09:12;98722.69;;;7.31;100.00
53908;BME280;40469;47.998;7.794;2022-11-20T11:11:39;98722.66;;;7.32;100.00
53908;BME280;40469;47.998;7.794;2022-11-20T11:14:14;98710.50;;;7.54;100.00
53908;BME280;40469;47.998;7.794;2022-11-20T11:16:49;98708.72;;;7.78;100.00
53908;BME280;40469;47.998;7.794;2022-11-20T11:19:15;98696.38;;;8.40;100.00
53908;BME280;40469;47.998;7.794;2022-11-20T11:21:49;98701.31;;;8.83;100.00
53908;BME280;40469;47.998;7.794;2022-11-20T11:24:27;98696.63;;;9.28;100.00
53908;BME280;40469;47.998;7.794;2022-11-20T11:27:03;98681.59;;;9.58;100.00
53908;BME280;40469;47.998;7.794;2022-11-20T11:29:35;98670.34;;;9.50;100.00
53908;BME280;40469;47.998;7.794;2022-11-20T11:32:08;98675.47;;;9.58;100.00
53908;BME280;40469;47.998;7.794;2022-11-20T11:34:36;98669.88;;;9.92;100.00
53908;BME280;40469;47.998;7.794;2022-11-20T11:37:02;98670.59;;;10.06;100.00
53908;BME280;40469;47.998;7.794;2022-11-20T11:39:32;98672.81;;;9.64;100.00
53908;BME280;40469;47.998;7.794;2022-11-20T11:42:00;98663.78;;;9.96;100.00
53908;BME280;40469;47.998;7.794;2022-11-20T11:47:29;98656.53;;;9.42;100.00
53908;BME280;40469;47.998;7.794;2022-11-20T11:50:25;98660.41;;;8.96;100.00
53908;BME280;40469;47.998;7.794;2022-11-20T11:55:32;98643.50;;;9.43;100.00
53908;BME280;40469;47.998;7.794;2022-11-20T12:00:26;98635.63;;;9.48;100.00
53908;BME280;40469;47.998;7.794;2022-11-20T12:03:08;98628.78;;;9.39;100.00
53908;BME280;40469;47.998;7.794;2022-11-20T12:05:52;98617.75;;;9.13;100.00
53908;BME280;40469;47.998;7.794;2022-11-20T12:08:40;98627.28;;;9.12;100.00
53908;BME280;40469;47.998;7.794;2022-11-20T12:11:19;98623.72;;;9.24;100.00
53908;BME280;40469;47.998;7.794;2022-11-20T12:13:53;98623.81;;;9.15;100.00
53908;BME280;40469;47.998;7.794;2022-11-20T12:16:19;98618.13;;;9.58;100.00
53908;BME280;40469;47.998;7.794;2022-11-20T12:18:49;98620.84;;;9.50;100.00
53908;BME280;40469;47.998;7.794;2022-11-20T12:21:32;98624.44;;;9.40;100.00
53908;BME280;40469;47.998;7.794;2022-11-20T12:35:12;98640.03;;;9.41;100.00
53908;BME280;40469;47.998;7.794;2022-11-20T12:38:19;98625.41;;;9.29;100.00
53908;BME280;40469;47.998;7.794;2022-11-20T12:43:29;98627.34;;;9.07;100.00
53908;BME280;40469;47.998;7.794;2022-11-20T12:46:48;98631.09;;;8.74;100.00
53908;BME280;40469;47.998;7.794;2022-11-20T12:55:13;98624.38;;;8.45;100.00
53908;BME280;40469;47.998;7.794;2022-11-20T12:57:51;98627.13;;;8.14;100.00
53908;BME280;40469;47.998;7.794;2022-11-20T13:00:19;98624.53;;;8.10;100.00
53908;BME280;40469;47.998;7.794;2022-11-20T13:05:52;98621.19;;;7.91;100.00
53908;BME280;40469;47.998;7.794;2022-11-20T13:08:25;98626.28;;;8.14;100.00
53908;BME280;40469;47.998;7.794;2022-11-20T13:11:09;98624.53;;;8.14;100.00
53908;BME280;40469;47.998;7.794;2022-11-20T13:16:36;98607.16;;;8.24;100.00
53908;BME280;40469;47.998;7.794;2022-11-20T13:19:05;98594.06;;;8.35;100.00
53908;BME280;40469;47.998;7.794;2022-11-20T13:21:45;98594.94;;;8.34;100.00
53908;BME280;40469;47.998;7.794;2022-11-20T13:29:34;98590.38;;;8.68;100.00
53908;BME280;40469;47.998;7.794;2022-11-20T13:32:14;98581.66;;;8.74;100.00
53908;BME280;40469;47.998;7.794;2022-11-20T13:34:51;98581.69;;;8.69;100.00
53908;BME280;40469;47.998;7.794;2022-11-20T13:37:44;98587.81;;;8.61;100.00
53908;BME280;40469;47.998;7.794;2022-11-20T13:42:38;98579.16;;;8.59;100.00
53908;BME280;40469;47.998;7.794;2022-11-20T13:45:31;98584.47;;;8.49;100.00
53908;BME280;40469;47.998;7.794;2022-11-20T13:48:02;98573.03;;;8.67;100.00
53908;BME280;40469;47.998;7.794;2022-11-20T13:50:40;98571.38;;;8.59;100.00
53908;BME280;40469;47.998;7.794;2022-11-20T13:56:27;98574.88;;;8.53;100.00
53908;BME280;40469;47.998;7.794;2022-11-20T14:01:33;98568.94;;;8.31;100.00
53908;BME280;40469;47.998;7.794;2022-11-20T14:04:05;98564.63;;;8.31;100.00
53908;BME280;40469;47.998;7.794;2022-11-20T14:06:38;98562.13;;;8.14;100.00
53908;BME280;40469;47.998;7.794;2022-11-20T14:09:04;98562.25;;;7.90;100.00
53908;BME280;40469;47.998;7.794;2022-11-20T14:11:30;98556.16;;;7.98;100.00
53908;BME280;40469;47.998;7.794;2022-11-20T14:14:04;98551.81;;;7.97;100.00
53908;BME280;40469;47.998;7.794;2022-11-20T14:16:32;98550.94;;;8.02;100.00
53908;BME280;40469;47.998;7.794;2022-11-20T14:19:22;98551.81;;;7.99;100.00
53908;BME280;40469;47.998;7.794;2022-11-20T14:21:51;98544.91;;;7.92;100.00
53908;BME280;40469;47.998;7.794;2022-11-20T14:27:59;98538.88;;;7.85;100.00
53908;BME280;40469;47.998;7.794;2022-11-20T14:30:47;98527.72;;;7.71;100.00
53908;BME280;40469;47.998;7.794;2022-11-20T14:33:14;98518.19;;;7.71;100.00
53908;BME280;40469;47.998;7.794;2022-11-20T14:35:51;98520.81;;;7.68;100.00